createdAt,value
2022-11-20T00:05:23.885Z,19.88
2022-11-20T00:11:48.279Z,19.79
2022-11-20T00:18:12.587Z,19.71
2022-11-20T00:24:42.760Z,19.62
2022-11-20T00:31:07.397Z,19.54
2022-11-20T00:37:31.764Z,19.46
2022-11-20T00:43:56.058Z,19.38
2022-11-20T00:50:10.542Z,19.30
2022-11-20T00:56:34.879Z,19.22
2022-11-20T01:02:58.963Z,19.15
2022-11-20T01:09:23.733Z,19.07
2022-11-20T01:15:48.521Z,19.00
2022-11-20T01:22:12.846Z,18.92
2022-11-20T01:28:37.079Z,18.85
2022-11-20T01:35:01.753Z,18.78
2022-11-20T01:41:26.325Z,18.70
2022-11-20T01:47:50.723Z,18.63
2022-11-20T01:54:15.169Z,18.56
2022-11-20T02:00:42.687Z,18.48
2022-11-20T02:07:22.202Z,18.41
2022-11-20T02:14:04.682Z,18.35
2022-11-20T02:20:28.968Z,18.29
2022-11-20T02:26:53.325Z,18.23
2022-11-20T02:33:20.379Z,18.17
2022-11-20T02:39:44.652Z,18.12
2022-11-20T02:46:01.154Z,18.07
2022-11-20T02:52:25.536Z,18.00
2022-11-20T02:58:49.966Z,17.95
2022-11-20T03:05:14.431Z,17.89
2022-11-20T03:11:38.766Z,17.83
2022-11-20T03:18:03.175Z,17.78
2022-11-20T03:24:27.453Z,17.73
2022-11-20T03:30:51.899Z,17.68
2022-11-20T03:37:16.287Z,17.63
2022-11-20T03:43:40.703Z,17.58
2022-11-20T03:50:05.116Z,17.53
2022-11-20T03:56:31.982Z,17.48
2022-11-20T04:02:56.402Z,17.43
2022-11-20T04:09:20.966Z,17.38
2022-11-20T04:15:45.640Z,17.34
2022-11-20T04:22:10.078Z,17.29
2022-11-20T04:28:34.510Z,17.25
2022-11-20T04:34:58.903Z,17.21
2022-11-20T04:41:23.189Z,17.17
2022-11-20T04:47:47.501Z,17.13
2022-11-20T04:54:11.834Z,17.09
2022-11-20T05:00:36.126Z,17.05
2022-11-20T05:07:03.311Z,17.01
2022-11-20T05:13:27.765Z,16.97
2022-11-20T05:19:53.278Z,16.93
2022-11-20T05:26:17.806Z,16.90
2022-11-20T05:32:42.063Z,16.86
2022-11-20T05:39:06.406Z,16.83
2022-11-20T05:45:30.714Z,16.82
2022-11-20T05:51:55.260Z,16.84
2022-11-20T05:58:19.731Z,16.92
2022-11-20T06:04:44.160Z,17.04
2022-11-20T06:11:08.657Z,17.19
2022-11-20T06:17:33.090Z,17.35
2022-11-20T06:23:55.873Z,17.50
2022-11-20T06:30:20.179Z,17.65
2022-11-20T06:36:45.001Z,17.78
2022-11-20T06:43:09.400Z,17.90
2022-11-20T06:49:33.742Z,18.01
2022-11-20T06:55:58.145Z,18.12
2022-11-20T07:02:22.521Z,18.21
2022-11-20T07:08:29.707Z,18.31
2022-11-20T07:14:54.227Z,18.37
2022-11-20T07:21:18.558Z,18.44
2022-11-20T07:27:42.880Z,18.50
2022-11-20T07:33:56.273Z,18.57
2022-11-20T07:40:20.627Z,18.67
2022-11-20T07:46:45.165Z,18.75
2022-11-20T07:53:05.788Z,18.83
2022-11-20T07:59:32.885Z,18.89
2022-11-20T08:05:57.261Z,18.95
2022-11-20T08:12:20.084Z,19.02
2022-11-20T08:18:44.450Z,19.08
2022-11-20T08:25:07.728Z,19.13
2022-11-20T08:31:32.047Z,19.18
2022-11-20T08:38:13.966Z,19.25
2022-11-20T08:44:41.064Z,19.32
2022-11-20T08:51:05.421Z,19.38
2022-11-20T08:57:28.687Z,19.44
2022-11-20T09:03:53.152Z,19.49
2022-11-20T09:17:01.755Z,19.55
2022-11-20T09:23:26.180Z,19.58
2022-11-20T09:29:50.623Z,19.60
2022-11-20T09:36:14.904Z,19.63
2022-11-20T09:42:54.070Z,19.69
2022-11-20T09:49:21.625Z,19.73
2022-11-20T09:55:38.913Z,19.78
2022-11-20T10:02:06.116Z,19.82
2022-11-20T10:08:30.396Z,19.87
2022-11-20T10:15:00.730Z,19.91
2022-11-20T10:21:28.195Z,19.95
2022-11-20T10:28:07.424Z,19.99
2022-11-20T10:34:34.175Z,20.03
2022-11-20T10:41:04.201Z,20.08
2022-11-20T10:47:28.705Z,20.13
2022-11-20T10:54:03.574Z,20.19
2022-11-20T11:00:27.891Z,20.25
2022-11-20T11:06:52.277Z,20.27
2022-11-20T11:13:16.593Z,20.29
2022-11-20T11:19:47.145Z,20.30
2022-11-20T11:26:13.957Z,20.33
2022-11-20T11:32:46.939Z,20.36
2022-11-20T11:39:14.300Z,20.38
2022-11-20T11:45:32.961Z,20.40
2022-11-20T11:51:57.293Z,20.42
2022-11-20T11:58:36.680Z,20.50
2022-11-20T12:04:59.180Z,20.62
2022-11-20T12:11:26.217Z,20.73
2022-11-20T12:17:50.625Z,20.87
2022-11-20T12:24:24.785Z,21.01
2022-11-20T12:31:01.568Z,21.16
2022-11-20T12:37:31.924Z,21.26
2022-11-20T12:44:03.495Z,21.35
2022-11-20T12:51:00.370Z,21.48
2022-11-20T12:57:25.110Z,21.58
2022-11-20T13:03:51.419Z,21.55
2022-11-20T13:10:24.265Z,21.49
2022-11-20T13:16:51.276Z,21.49
2022-11-20T13:23:24.684Z,21.55
2022-11-20T13:29:58.136Z,21.68
2022-11-20T13:36:28.339Z,21.78
2022-11-20T13:42:55.916Z,21.84
2022-11-20T13:49:20.634Z,21.86
2022-11-20T13:55:42.298Z,21.86
2022-11-20T14:02:12.374Z,21.84
2022-11-20T14:08:36.856Z,21.81
2022-11-20T14:15:01.152Z,21.80
2022-11-20T14:21:25.554Z,21.79
2022-11-20T14:27:52.518Z,21.79
2022-11-20T14:34:16.833Z,21.77
2022-11-20T14:40:44.031Z,21.74
2022-11-20T14:47:08.427Z,21.72
2022-11-20T14:53:35.134Z,21.70
2022-11-20T14:59:59.847Z,21.69
2022-11-20T15:06:26.810Z,21.67
2022-11-20T15:12:47.607Z,21.67
2022-11-20T15:19:15.200Z,21.64
2022-11-20T15:25:39.650Z,21.64
2022-11-20T15:32:05.936Z,21.62
2022-11-20T15:38:33.455Z,21.60
2022-11-20T15:44:57.732Z,21.58
2022-11-20T15:51:22.917Z,21.57
2022-11-20T15:57:47.060Z,21.56
2022-11-20T16:04:11.361Z,21.54
2022-11-20T16:10:35.724Z,21.52
2022-11-20T16:17:03.040Z,21.52
2022-11-20T16:23:27.311Z,21.51
2022-11-20T16:29:51.633Z,21.49
2022-11-20T16:36:16.249Z,21.47
2022-11-20T16:42:40.670Z,21.46
2022-11-20T16:49:04.966Z,21.46
2022-11-20T16:55:29.362Z,21.45
2022-11-20T17:01:53.636Z,21.45
2022-11-20T17:07:59.106Z,21.44
2022-11-20T17:14:23.585Z,21.44
2022-11-20T17:20:48.311Z,21.43
2022-11-20T17:27:12.724Z,21.41
2022-11-20T17:33:37.142Z,21.36
2022-11-20T17:40:01.536Z,21.31
2022-11-20T17:46:25.868Z,21.28
2022-11-20T17:52:44.416Z,21.30
2022-11-20T17:59:08.804Z,21.34
2022-11-20T18:05:33.186Z,21.37
2022-11-20T18:11:57.540Z,21.39
2022-11-20T18:18:21.881Z,21.41
2022-11-20T18:24:46.312Z,21.42
2022-11-20T18:31:10.983Z,21.42
2022-11-20T18:37:35.401Z,21.43
2022-11-20T18:43:58.475Z,21.44
2022-11-20T18:50:15.423Z,21.45
2022-11-20T18:56:39.844Z,21.46
2022-11-20T19:03:04.169Z,21.48
2022-11-20T19:09:31.459Z,21.50
2022-11-20T19:15:55.841Z,21.53
2022-11-20T19:22:21.051Z,21.54
2022-11-20T19:28:40.488Z,21.55
2022-11-20T19:35:04.966Z,21.56
2022-11-20T19:41:29.329Z,21.58
2022-11-20T19:48:06.807Z,21.58
2022-11-20T19:54:30.831Z,21.60
2022-11-20T20:00:55.333Z,21.62
2022-11-20T20:07:08.790Z,21.64
2022-11-20T20:13:33.200Z,21.65
2022-11-20T20:19:57.662Z,21.67
2022-11-20T20:26:22.034Z,21.67
2022-11-20T20:32:46.402Z,21.66
2022-11-20T20:39:10.857Z,21.67
2022-11-20T20:45:35.207Z,21.64
2022-11-20T20:51:59.881Z,21.62
2022-11-20T20:58:24.180Z,21.61
2022-11-20T21:04:48.531Z,21.62
2022-11-20T21:11:12.917Z,21.64
2022-11-20T21:17:37.221Z,21.66
2022-11-20T21:24:04.554Z,21.68
2022-11-20T21:30:28.920Z,21.71
2022-11-20T21:36:53.268Z,21.71
2022-11-20T21:42:57.718Z,21.70
2022-11-20T21:49:22.463Z,21.67
2022-11-20T21:55:46.911Z,21.60
2022-11-20T22:02:26.448Z,21.53
2022-11-20T22:08:50.787Z,21.45
2022-11-20T22:15:28.017Z,21.37
2022-11-20T22:21:57.530Z,21.29
2022-11-20T22:28:22.169Z,21.21
2022-11-20T22:34:46.458Z,21.13
2022-11-20T22:41:09.996Z,21.04
2022-11-20T22:47:34.371Z,20.96
2022-11-20T22:53:58.695Z,20.87
2022-11-20T23:00:23.226Z,20.77
2022-11-20T23:06:47.493Z,20.65
2022-11-20T23:13:11.909Z,20.52
2022-11-20T23:19:36.235Z,20.40
2022-11-20T23:26:00.768Z,20.27
2022-11-20T23:32:25.038Z,20.16
2022-11-20T23:38:50.397Z,20.05
2022-11-20T23:45:14.704Z,19.94
2022-11-20T23:51:39.087Z,19.83
2022-11-20T23:58:03.512Z,19.72
